createdAt,value
2022-11-20T00:01:52.748Z,8.29
2022-11-20T00:04:19.423Z,8.18
2022-11-20T00:06:46.045Z,7.94
2022-11-20T00:09:12.713Z,8.16
2022-11-20T00:11:39.323Z,8.34
2022-11-20T00:14:05.974Z,8.41
2022-11-20T00:16:32.605Z,8.35
2022-11-20T00:18:59.248Z,8.12
2022-11-20T00:21:25.894Z,8.09
2022-11-20T00:23:54.960Z,8.33
2022-11-20T00:26:21.849Z,8.60
2022-11-20T00:28:50.778Z,8.76
2022-11-20T00:31:17.370Z,8.90
2022-11-20T00:33:43.991Z,8.67
2022-11-20T00:36:10.605Z,8.73
2022-11-20T00:38:37.249Z,8.79
2022-11-20T00:41:03.907Z,8.86
2022-11-20T00:43:30.527Z,8.59
2022-11-20T00:45:57.183Z,8.06
2022-11-20T00:48:23.838Z,8.17
2022-11-20T00:50:50.446Z,8.39
2022-11-20T00:53:17.074Z,8.25
2022-11-20T00:55:43.731Z,8.48
2022-11-20T00:58:14.189Z,8.66
2022-11-20T01:00:41.133Z,8.68
2022-11-20T01:03:07.744Z,8.54
2022-11-20T01:05:34.411Z,8.38
2022-11-20T01:08:01.007Z,8.30
2022-11-20T01:10:27.658Z,8.25
2022-11-20T01:12:54.258Z,7.98
2022-11-20T01:15:20.936Z,7.34
2022-11-20T01:17:47.593Z,7.23
2022-11-20T01:20:14.249Z,7.16
2022-11-20T01:22:40.933Z,7.49
2022-11-20T01:25:07.529Z,7.78
2022-11-20T01:27:34.157Z,8.04
2022-11-20T01:30:01.387Z,8.37
2022-11-20T01:32:28.266Z,8.61
2022-11-20T01:34:54.878Z,8.52
2022-11-20T01:37:21.539Z,8.72
2022-11-20T01:39:48.201Z,8.76
2022-11-20T01:42:14.865Z,8.86
2022-11-20T01:44:41.539Z,8.79
2022-11-20T01:47:08.175Z,8.81
2022-11-20T01:49:34.784Z,8.88
2022-11-20T01:52:01.473Z,8.68
2022-11-20T01:54:28.155Z,8.70
2022-11-20T01:56:54.807Z,8.83
2022-11-20T01:59:21.945Z,8.77
2022-11-20T02:01:48.880Z,8.80
2022-11-20T02:04:15.555Z,8.79
2022-11-20T02:06:42.683Z,8.71
2022-11-20T02:09:09.317Z,8.77
2022-11-20T02:11:35.908Z,8.75
2022-11-20T02:14:02.557Z,8.58
2022-11-20T02:16:29.178Z,8.61
2022-11-20T02:18:55.781Z,8.82
2022-11-20T02:21:22.396Z,8.97
2022-11-20T02:23:49.027Z,8.96
2022-11-20T02:26:15.661Z,8.87
2022-11-20T02:28:42.257Z,8.73
2022-11-20T02:31:08.834Z,8.74
2022-11-20T02:33:35.541Z,8.75
2022-11-20T02:36:02.207Z,8.83
2022-11-20T02:38:28.831Z,8.90
2022-11-20T02:40:55.956Z,8.92
2022-11-20T02:43:22.699Z,8.91
2022-11-20T02:45:49.280Z,9.00
2022-11-20T02:48:15.876Z,8.91
2022-11-20T02:50:42.533Z,8.89
2022-11-20T02:53:09.162Z,8.76
2022-11-20T02:55:35.846Z,8.91
2022-11-20T02:58:02.497Z,8.92
2022-11-20T03:00:29.166Z,8.96
2022-11-20T03:02:55.773Z,8.87
2022-11-20T03:05:22.422Z,8.90
2022-11-20T03:07:49.039Z,8.93
2022-11-20T03:10:15.613Z,8.91
2022-11-20T03:12:42.225Z,8.92
2022-11-20T03:15:08.850Z,8.73
2022-11-20T03:17:35.476Z,8.84
2022-11-20T03:20:02.084Z,8.88
2022-11-20T03:22:28.710Z,8.92
2022-11-20T03:24:55.320Z,8.94
2022-11-20T03:27:21.960Z,8.95
2022-11-20T03:29:48.567Z,8.96
2022-11-20T03:32:15.167Z,8.93
2022-11-20T03:34:41.763Z,9.06
2022-11-20T03:37:08.374Z,9.13
2022-11-20T03:39:35.015Z,8.89
2022-11-20T03:42:01.682Z,8.86
2022-11-20T03:44:28.295Z,8.90
2022-11-20T03:46:54.945Z,8.93
2022-11-20T03:49:21.964Z,8.96
2022-11-20T03:51:48.833Z,8.97
2022-11-20T03:54:15.462Z,8.92
2022-11-20T03:56:42.065Z,8.87
2022-11-20T03:59:08.668Z,8.90
2022-11-20T04:01:35.389Z,8.89
2022-11-20T04:04:02.029Z,8.96
2022-11-20T04:06:28.640Z,8.87
2022-11-20T04:08:55.225Z,8.87
2022-11-20T04:11:21.845Z,8.86
2022-11-20T04:13:48.552Z,8.98
2022-11-20T04:16:15.193Z,9.01
2022-11-20T04:18:41.789Z,8.86
2022-11-20T04:21:08.410Z,8.77
2022-11-20T04:23:35.003Z,8.89
2022-11-20T04:26:01.625Z,8.88
2022-11-20T04:28:28.212Z,8.96
2022-11-20T04:30:54.853Z,8.93
2022-11-20T04:33:21.516Z,9.02
2022-11-20T04:35:48.121Z,8.83
2022-11-20T04:38:14.706Z,8.80
2022-11-20T04:40:41.343Z,8.79
2022-11-20T04:43:07.988Z,8.82
2022-11-20T04:45:34.621Z,8.89
2022-11-20T04:48:01.282Z,8.90
2022-11-20T04:50:27.969Z,8.89
2022-11-20T04:52:54.636Z,8.91
2022-11-20T04:55:21.234Z,8.77
2022-11-20T04:57:47.881Z,8.77
2022-11-20T05:00:14.512Z,8.76
2022-11-20T05:02:41.448Z,8.86
2022-11-20T05:05:08.101Z,8.88
2022-11-20T05:07:34.824Z,8.80
2022-11-20T05:10:01.467Z,8.78
2022-11-20T05:12:28.109Z,8.80
2022-11-20T05:14:54.889Z,8.69
2022-11-20T05:17:21.551Z,8.71
2022-11-20T05:19:52.021Z,8.76
2022-11-20T05:22:19.738Z,8.83
2022-11-20T05:24:46.678Z,8.77
2022-11-20T05:27:13.333Z,8.80
2022-11-20T05:29:39.956Z,8.69
2022-11-20T05:32:06.624Z,8.55
2022-11-20T05:34:33.220Z,8.46
2022-11-20T05:36:59.852Z,8.54
2022-11-20T05:39:26.470Z,8.62
2022-11-20T05:41:53.095Z,8.62
2022-11-20T05:44:19.743Z,8.66
2022-11-20T05:46:46.373Z,8.62
2022-11-20T05:49:13.015Z,8.56
2022-11-20T05:51:39.702Z,8.53
2022-11-20T05:54:06.396Z,8.56
2022-11-20T05:56:33.066Z,8.68
2022-11-20T05:58:59.710Z,8.75
2022-11-20T06:01:26.373Z,8.78
2022-11-20T06:03:52.976Z,8.76
2022-11-20T06:06:19.594Z,8.80
2022-11-20T06:08:46.243Z,8.77
2022-11-20T06:11:12.836Z,8.67
2022-11-20T06:13:42.350Z,8.68
2022-11-20T06:16:09.302Z,8.58
2022-11-20T06:18:35.958Z,8.50
2022-11-20T06:21:02.560Z,8.56
2022-11-20T06:23:29.190Z,8.63
2022-11-20T06:25:55.812Z,8.70
2022-11-20T06:28:22.458Z,8.80
2022-11-20T06:30:49.123Z,8.75
2022-11-20T06:33:15.770Z,8.69
2022-11-20T06:35:42.490Z,8.68
2022-11-20T06:38:09.178Z,8.75
2022-11-20T06:40:35.828Z,8.68
2022-11-20T06:43:02.460Z,8.55
2022-11-20T06:45:29.105Z,8.63
2022-11-20T06:47:55.729Z,8.82
2022-11-20T06:50:22.312Z,8.99
2022-11-20T06:52:48.969Z,9.00
2022-11-20T06:55:15.605Z,8.96
2022-11-20T06:57:42.247Z,8.97
2022-11-20T07:00:08.930Z,9.05
2022-11-20T07:02:35.562Z,9.15
2022-11-20T07:05:02.222Z,9.03
2022-11-20T07:07:28.880Z,8.72
2022-11-20T07:09:55.523Z,8.48
2022-11-20T07:12:22.187Z,8.74
2022-11-20T07:14:48.797Z,8.96
2022-11-20T07:17:15.450Z,9.05
2022-11-20T07:19:42.115Z,9.17
2022-11-20T07:22:08.760Z,9.32
2022-11-20T07:24:35.437Z,9.47
2022-11-20T07:27:02.064Z,9.42
2022-11-20T07:29:28.701Z,9.35
2022-11-20T07:31:55.329Z,9.44
2022-11-20T07:34:22.021Z,9.40
2022-11-20T07:36:48.601Z,9.26
2022-11-20T07:39:15.219Z,9.27
2022-11-20T07:41:41.850Z,9.43
2022-11-20T07:44:08.506Z,9.45
2022-11-20T07:46:35.128Z,9.44
2022-11-20T07:49:01.799Z,9.37
2022-11-20T07:51:28.511Z,9.63
2022-11-20T07:53:55.140Z,9.65
2022-11-20T07:56:21.743Z,9.74
2022-11-20T07:58:48.400Z,9.81
2022-11-20T08:01:15.104Z,9.71
2022-11-20T08:03:41.797Z,9.67
2022-11-20T08:06:08.436Z,9.59
2022-11-20T08:08:38.860Z,9.36
2022-11-20T08:11:08.986Z,9.18
2022-11-20T08:13:35.612Z,9.17
2022-11-20T08:16:02.253Z,9.40
2022-11-20T08:18:31.806Z,9.70
2022-11-20T08:20:58.953Z,9.56
2022-11-20T08:23:25.552Z,9.78
2022-11-20T08:25:52.333Z,9.90
2022-11-20T08:28:21.581Z,9.84
2022-11-20T08:30:48.643Z,9.91
2022-11-20T08:33:15.310Z,9.92
2022-11-20T08:35:42.059Z,9.71
2022-11-20T08:38:08.663Z,9.66
2022-11-20T08:40:35.333Z,9.85
2022-11-20T08:43:02.005Z,10.00
2022-11-20T08:45:33.773Z,9.87
2022-11-20T08:48:01.450Z,9.75
2022-11-20T08:50:28.059Z,9.80
2022-11-20T08:52:54.752Z,9.83
2022-11-20T08:55:21.395Z,9.86
2022-11-20T08:57:50.764Z,10.01
2022-11-20T09:00:17.578Z,10.18
2022-11-20T09:02:44.223Z,10.23
2022-11-20T09:05:10.898Z,10.20
2022-11-20T09:07:37.571Z,10.07
2022-11-20T09:10:23.050Z,9.91
2022-11-20T09:12:50.498Z,9.62
2022-11-20T09:15:17.125Z,9.80
2022-11-20T09:17:43.722Z,10.08
2022-11-20T09:20:10.378Z,10.37
2022-11-20T09:22:37.039Z,10.41
2022-11-20T09:25:03.706Z,10.30
2022-11-20T09:27:30.372Z,10.33
2022-11-20T09:29:57.060Z,10.08
2022-11-20T09:32:23.658Z,10.09
2022-11-20T09:34:50.354Z,10.20
2022-11-20T09:37:17.026Z,10.16
2022-11-20T09:39:43.674Z,10.23
2022-11-20T09:42:10.283Z,10.38
2022-11-20T09:44:36.982Z,10.47
2022-11-20T09:47:03.632Z,10.45
2022-11-20T09:49:32.641Z,10.09
2022-11-20T09:51:59.599Z,10.12
2022-11-20T09:54:26.287Z,10.47
2022-11-20T09:56:53.912Z,10.73
2022-11-20T09:59:20.789Z,10.61
2022-11-20T10:01:47.708Z,10.94
2022-11-20T10:04:20.582Z,11.12
2022-11-20T10:06:59.498Z,11.28
2022-11-20T10:09:34.552Z,11.23
2022-11-20T10:12:01.234Z,11.47
2022-11-20T10:14:27.850Z,11.55
2022-11-20T10:16:54.503Z,11.84
2022-11-20T10:19:21.370Z,11.90
2022-11-20T10:21:48.267Z,11.78
2022-11-20T10:24:14.902Z,11.85
2022-11-20T10:26:41.494Z,12.13
2022-11-20T10:29:09.092Z,11.90
2022-11-20T10:31:35.942Z,11.95
2022-11-20T10:34:12.012Z,12.13
2022-11-20T10:36:39.741Z,11.83
2022-11-20T10:39:06.435Z,12.00
2022-11-20T10:41:35.914Z,12.27
2022-11-20T10:44:03.793Z,12.65
2022-11-20T10:46:30.391Z,12.82
2022-11-20T10:48:57.046Z,12.42
2022-11-20T10:51:23.732Z,12.51
2022-11-20T10:53:50.374Z,13.12
2022-11-20T10:56:17.077Z,12.84
2022-11-20T10:58:43.726Z,13.16
2022-11-20T11:01:10.439Z,12.58
2022-11-20T11:03:37.134Z,12.59
2022-11-20T11:06:03.839Z,13.11
2022-11-20T11:08:30.494Z,13.11
2022-11-20T11:10:57.170Z,13.23
2022-11-20T11:13:23.848Z,13.23
2022-11-20T11:15:50.532Z,13.41
2022-11-20T11:18:17.150Z,13.61
2022-11-20T11:20:43.796Z,13.56
2022-11-20T11:23:10.491Z,13.30
2022-11-20T11:25:37.255Z,13.29
2022-11-20T11:28:03.883Z,13.13
2022-11-20T11:30:30.512Z,13.32
2022-11-20T11:32:57.153Z,13.37
2022-11-20T11:35:23.841Z,12.10
2022-11-20T11:37:50.446Z,12.76
2022-11-20T11:40:23.760Z,13.49
2022-11-20T11:42:50.824Z,14.12
2022-11-20T11:45:17.473Z,13.96
2022-11-20T11:47:44.152Z,13.94
2022-11-20T11:50:11.124Z,14.00
2022-11-20T11:52:37.787Z,14.26
2022-11-20T11:55:10.073Z,13.73
2022-11-20T11:57:38.205Z,13.99
2022-11-20T12:00:04.853Z,14.26
2022-11-20T12:02:31.539Z,14.57
2022-11-20T12:04:58.187Z,14.96
2022-11-20T12:07:45.532Z,14.30
2022-11-20T12:10:11.434Z,13.66
2022-11-20T12:12:38.028Z,13.67
2022-11-20T12:15:04.709Z,14.20
2022-11-20T12:17:31.366Z,14.90
2022-11-20T12:19:57.999Z,15.00
2022-11-20T12:22:24.647Z,13.63
2022-11-20T12:24:51.347Z,12.78
2022-11-20T12:27:17.981Z,13.24
2022-11-20T12:29:44.616Z,13.70
2022-11-20T12:32:11.299Z,14.73
2022-11-20T12:34:37.957Z,15.03
2022-11-20T12:37:04.556Z,15.02
2022-11-20T12:39:31.191Z,15.20
2022-11-20T12:41:57.810Z,15.00
2022-11-20T12:44:24.405Z,15.08
2022-11-20T12:46:51.366Z,15.19
2022-11-20T12:49:18.030Z,15.37
2022-11-20T12:51:44.724Z,14.70
2022-11-20T12:54:11.333Z,14.22
2022-11-20T12:56:37.921Z,14.37
2022-11-20T12:59:04.619Z,13.87
2022-11-20T13:01:31.242Z,13.65
2022-11-20T13:03:57.886Z,13.79
2022-11-20T13:06:24.520Z,14.79
2022-11-20T13:08:51.167Z,15.09
2022-11-20T13:11:17.757Z,14.75
2022-11-20T13:13:44.382Z,14.24
2022-11-20T13:16:14.399Z,14.26
2022-11-20T13:18:41.825Z,14.43
2022-11-20T13:21:08.433Z,14.83
2022-11-20T13:23:35.066Z,15.32
2022-11-20T13:26:01.712Z,15.19
2022-11-20T13:28:28.439Z,15.20
2022-11-20T13:30:55.042Z,14.65
2022-11-20T13:33:21.709Z,15.27
2022-11-20T13:35:48.384Z,14.91
2022-11-20T13:38:15.022Z,14.61
2022-11-20T13:40:44.674Z,14.27
2022-11-20T13:43:11.354Z,14.47
2022-11-20T13:45:38.051Z,15.10
2022-11-20T13:48:04.711Z,15.58
2022-11-20T13:50:31.373Z,15.88
2022-11-20T13:52:58.043Z,15.94
2022-11-20T13:55:24.652Z,15.83
2022-11-20T13:57:52.184Z,15.77
2022-11-20T14:00:19.000Z,15.77
2022-11-20T14:02:45.667Z,15.35
2022-11-20T14:05:12.253Z,14.54
2022-11-20T14:07:38.918Z,14.65
2022-11-20T14:10:05.646Z,14.90
2022-11-20T14:12:32.349Z,14.66
2022-11-20T14:14:59.028Z,13.91
2022-11-20T14:17:25.672Z,14.05
2022-11-20T14:19:52.278Z,14.27
2022-11-20T14:22:18.930Z,14.14
2022-11-20T14:24:45.555Z,13.91
2022-11-20T14:27:12.219Z,13.65
2022-11-20T14:29:38.871Z,14.01
2022-11-20T14:32:05.535Z,14.12
2022-11-20T14:34:32.199Z,14.24
2022-11-20T14:36:58.835Z,14.26
2022-11-20T14:39:25.521Z,14.21
2022-11-20T14:41:52.195Z,14.17
2022-11-20T14:44:18.867Z,14.16
2022-11-20T14:46:45.593Z,14.01
2022-11-20T14:49:12.292Z,13.82
2022-11-20T14:51:38.949Z,13.77
2022-11-20T14:54:05.630Z,13.66
2022-11-20T14:56:32.273Z,13.65
2022-11-20T14:58:58.903Z,13.62
2022-11-20T15:01:25.509Z,13.56
2022-11-20T15:03:52.243Z,13.47
2022-11-20T15:06:18.884Z,13.29
2022-11-20T15:08:45.551Z,13.12
2022-11-20T15:11:12.195Z,13.06
2022-11-20T15:13:38.846Z,13.01
2022-11-20T15:16:05.543Z,12.87
2022-11-20T15:18:32.584Z,12.77
2022-11-20T15:20:59.223Z,12.68
2022-11-20T15:23:25.878Z,12.64
2022-11-20T15:25:52.534Z,12.44
2022-11-20T15:28:19.169Z,12.32
2022-11-20T15:30:45.815Z,12.18
2022-11-20T15:33:12.496Z,12.02
2022-11-20T15:35:39.119Z,11.86
2022-11-20T15:38:05.792Z,11.77
2022-11-20T15:40:32.433Z,11.77
2022-11-20T15:42:59.115Z,11.79
2022-11-20T15:45:25.714Z,11.64
2022-11-20T15:47:52.361Z,11.61
2022-11-20T15:50:19.044Z,11.70
2022-11-20T15:52:45.673Z,11.56
2022-11-20T15:55:12.323Z,11.37
2022-11-20T15:57:38.931Z,11.21
2022-11-20T16:00:05.575Z,11.32
2022-11-20T16:02:32.221Z,11.35
2022-11-20T16:04:58.884Z,11.32
2022-11-20T16:07:25.620Z,11.29
2022-11-20T16:09:52.359Z,11.22
2022-11-20T16:12:18.999Z,11.22
2022-11-20T16:14:45.682Z,10.98
2022-11-20T16:17:12.302Z,10.99
2022-11-20T16:19:38.946Z,10.84
2022-11-20T16:22:05.615Z,10.77
2022-11-20T16:24:32.308Z,11.04
2022-11-20T16:26:58.967Z,11.12
2022-11-20T16:29:25.549Z,11.12
2022-11-20T16:31:52.194Z,10.98
2022-11-20T16:34:18.849Z,11.01
2022-11-20T16:36:45.525Z,11.12
2022-11-20T16:39:12.191Z,11.23
2022-11-20T16:41:38.843Z,11.26
2022-11-20T16:44:05.545Z,11.27
2022-11-20T16:46:32.205Z,11.40
2022-11-20T16:48:58.869Z,11.32
2022-11-20T16:51:25.542Z,11.03
2022-11-20T16:53:52.213Z,11.08
2022-11-20T16:56:18.941Z,10.92
2022-11-20T16:58:45.660Z,11.11
2022-11-20T17:01:12.303Z,11.37
2022-11-20T17:03:38.991Z,11.47
2022-11-20T17:06:05.642Z,11.57
2022-11-20T17:08:32.419Z,11.30
2022-11-20T17:13:43.276Z,11.07
2022-11-20T17:16:09.922Z,11.31
2022-11-20T17:18:36.568Z,11.33
2022-11-20T17:21:03.234Z,11.17
2022-11-20T17:23:29.886Z,11.33
2022-11-20T17:25:56.480Z,11.43
2022-11-20T17:28:23.147Z,11.49
2022-11-20T17:30:49.756Z,11.15
2022-11-20T17:33:16.401Z,11.31
2022-11-20T17:35:43.043Z,11.02
2022-11-20T17:38:09.663Z,11.22
2022-11-20T17:40:36.257Z,11.38
2022-11-20T17:43:02.887Z,11.21
2022-11-20T17:45:29.583Z,10.45
2022-11-20T17:47:56.242Z,10.23
2022-11-20T17:50:22.862Z,10.09
2022-11-20T17:52:49.554Z,10.02
2022-11-20T17:55:16.196Z,9.76
2022-11-20T17:57:42.817Z,9.96
2022-11-20T18:00:09.454Z,9.93
2022-11-20T18:02:36.098Z,10.12
2022-11-20T18:05:02.754Z,10.43
2022-11-20T18:07:29.433Z,10.81
2022-11-20T18:09:56.161Z,10.91
2022-11-20T18:12:22.788Z,11.15
2022-11-20T18:14:49.464Z,11.23
2022-11-20T18:17:16.149Z,11.24
2022-11-20T18:19:55.715Z,11.36
2022-11-20T18:22:29.412Z,11.31
2022-11-20T18:24:56.058Z,11.32
2022-11-20T18:27:22.756Z,11.24
2022-11-20T18:29:49.364Z,11.28
2022-11-20T18:32:15.972Z,11.36
2022-11-20T18:34:42.619Z,11.44
2022-11-20T18:37:09.289Z,11.50
2022-11-20T18:39:35.945Z,11.57
2022-11-20T18:42:02.538Z,11.47
2022-11-20T18:44:29.201Z,11.25
2022-11-20T18:46:55.828Z,11.08
2022-11-20T18:49:22.418Z,11.03
2022-11-20T18:51:49.118Z,11.17
2022-11-20T18:54:15.786Z,11.31
2022-11-20T18:56:42.408Z,11.28
2022-11-20T18:59:09.038Z,11.32
2022-11-20T19:01:35.737Z,11.42
2022-11-20T19:04:02.428Z,11.51
2022-11-20T19:06:29.045Z,11.21
2022-11-20T19:08:58.659Z,11.43
2022-11-20T19:11:25.302Z,11.38
2022-11-20T19:13:51.930Z,11.43
2022-11-20T19:16:19.556Z,11.50
2022-11-20T19:18:46.192Z,11.45
2022-11-20T19:21:12.809Z,11.30
2022-11-20T19:23:39.478Z,11.19
2022-11-20T19:26:06.149Z,11.07
2022-11-20T19:28:32.804Z,11.11
2022-11-20T19:31:00.776Z,11.12
2022-11-20T19:33:27.400Z,11.03
2022-11-20T19:35:54.011Z,10.92
2022-11-20T19:38:20.689Z,10.85
2022-11-20T19:40:47.335Z,10.77
2022-11-20T19:43:14.030Z,10.68
2022-11-20T19:45:40.634Z,10.58
2022-11-20T19:48:08.461Z,10.42
2022-11-20T19:50:37.445Z,10.26
2022-11-20T19:53:04.097Z,10.18
2022-11-20T19:55:30.787Z,10.05
2022-11-20T19:57:57.424Z,9.99
2022-11-20T20:00:29.549Z,9.83
2022-11-20T20:02:59.143Z,9.73
2022-11-20T20:05:25.817Z,9.87
2022-11-20T20:07:52.467Z,9.78
2022-11-20T20:10:19.116Z,9.62
2022-11-20T20:12:45.760Z,9.57
2022-11-20T20:15:12.383Z,9.50
2022-11-20T20:17:39.142Z,9.44
2022-11-20T20:20:05.817Z,9.22
2022-11-20T20:22:32.485Z,9.26
2022-11-20T20:25:02.196Z,9.02
2022-11-20T20:27:28.852Z,8.66
2022-11-20T20:29:55.838Z,8.76
2022-11-20T20:32:22.472Z,8.95
2022-11-20T20:34:49.092Z,8.93
2022-11-20T20:37:15.725Z,8.90
2022-11-20T20:39:42.407Z,8.91
2022-11-20T20:42:09.027Z,9.02
2022-11-20T20:44:35.656Z,8.93
2022-11-20T20:47:02.282Z,8.78
2022-11-20T20:52:13.169Z,8.56
2022-11-20T20:54:39.822Z,8.47
2022-11-20T20:57:06.451Z,8.47
2022-11-20T20:59:33.046Z,8.45
2022-11-20T21:01:59.715Z,8.37
2022-11-20T21:04:26.346Z,8.38
2022-11-20T21:06:52.988Z,8.49
2022-11-20T21:09:19.625Z,8.54
2022-11-20T21:11:46.288Z,8.44
2022-11-20T21:14:12.962Z,8.20
2022-11-20T21:16:39.619Z,8.31
2022-11-20T21:19:06.329Z,8.30
2022-11-20T21:21:32.943Z,8.33
2022-11-20T21:23:59.587Z,8.34
2022-11-20T21:26:26.253Z,8.36
2022-11-20T21:28:52.898Z,8.37
2022-11-20T21:31:19.610Z,8.31
2022-11-20T21:33:47.254Z,8.41
2022-11-20T21:36:13.932Z,8.43
2022-11-20T21:38:42.742Z,8.39
2022-11-20T21:41:09.381Z,8.43
2022-11-20T21:43:36.083Z,8.45
2022-11-20T21:46:02.705Z,8.39
2022-11-20T21:48:29.322Z,8.30
2022-11-20T21:50:55.916Z,8.27
2022-11-20T21:53:22.537Z,7.87
2022-11-20T21:55:49.165Z,7.94
2022-11-20T21:58:15.824Z,8.08
2022-11-20T22:00:42.479Z,8.03
2022-11-20T22:03:09.172Z,8.02
2022-11-20T22:05:35.772Z,8.05
2022-11-20T22:08:02.485Z,8.03
2022-11-20T22:10:29.119Z,8.05
2022-11-20T22:12:55.766Z,8.00
2022-11-20T22:15:53.275Z,8.07
2022-11-20T22:18:09.014Z,8.12
2022-11-20T22:20:35.619Z,8.25
2022-11-20T22:23:02.287Z,8.13
2022-11-20T22:25:28.912Z,8.09
2022-11-20T22:27:55.580Z,7.90
2022-11-20T22:30:22.266Z,7.92
2022-11-20T22:32:48.887Z,8.00
2022-11-20T22:35:15.547Z,8.00
2022-11-20T22:37:42.716Z,7.92
2022-11-20T22:40:09.385Z,7.85
2022-11-20T22:42:36.066Z,7.94
2022-11-20T22:45:02.685Z,7.98
2022-11-20T22:47:29.340Z,7.90
2022-11-20T22:49:55.988Z,7.88
2022-11-20T22:52:22.679Z,7.84
2022-11-20T22:54:49.343Z,7.71
2022-11-20T22:57:16.008Z,7.74
2022-11-20T22:59:42.710Z,7.63
2022-11-20T23:02:09.381Z,7.58
2022-11-20T23:04:36.050Z,7.52
2022-11-20T23:07:02.831Z,7.45
2022-11-20T23:09:29.551Z,7.50
2022-11-20T23:11:56.172Z,7.57
2022-11-20T23:14:27.547Z,7.26
2022-11-20T23:16:54.570Z,7.26
2022-11-20T23:19:21.222Z,7.22
2022-11-20T23:21:47.856Z,7.27
2022-11-20T23:24:14.506Z,7.34
2022-11-20T23:26:41.139Z,7.43
2022-11-20T23:29:07.832Z,7.37
2022-11-20T23:31:34.539Z,7.18
2022-11-20T23:34:01.170Z,7.12
2022-11-20T23:36:27.793Z,7.25
2022-11-20T23:38:54.425Z,7.39
2022-11-20T23:41:21.087Z,7.21
2022-11-20T23:43:47.719Z,7.09
2022-11-20T23:46:16.837Z,6.91
2022-11-20T23:48:43.772Z,7.05
2022-11-20T23:51:10.426Z,6.78
2022-11-20T23:53:37.052Z,6.94
2022-11-20T23:56:03.685Z,6.81
2022-11-20T23:58:30.351Z,6.83
